sensor_id;sensor_type;location;lat;lon;timestamp;pressure;altitude;pressure_sealevel;temperature;humidity
12789;BME280;6458;42.710;23.192;2023-08-31T00:00:09;57554.78;;;-144.77;100.00
12789;BME280;6458;42.710;23.192;2023-08-31T00:02:38;93346.41;;;17.86;100.00
12789;BME280;6458;42.710;23.192;2023-08-31T00:05:06;93341.47;;;17.93;100.00
12789;BME280;6458;42.710;23.192;2023-08-31T00:07:35;93341.47;;;17.93;100.00
12789;BME280;6458;42.710;23.192;2023-08-31T00:10:02;93341.47;;;17.93;100.00
12789;BME280;6458;42.710;23.192;2023-08-31T00:12:34;93348.56;;;17.81;100.00
12789;BME280;6458;42.710;23.192;2023-08-31T00:15:02;93348.56;;;17.81;100.00
12789;BME280;6458;42.710;23.192;2023-08-31T00:17:29;57554.78;;;-144.77;87.26
12789;BME280;6458;42.710;23.192;2023-08-31T00:19:56;93348.56;;;17.81;100.00
12789;BME280;6458;42.710;23.192;2023-08-31T00:22:23;93349.34;;;17.93;100.00
12789;BME280;6458;42.710;23.192;2023-08-31T00:24:52;93349.34;;;17.93;100.00
12789;BME280;6458;42.710;23.192;2023-08-31T00:30:41;57554.78;;;-144.77;100.00
12789;BME280;6458;42.710;23.192;2023-08-31T00:33:10;57554.78;;;-144.77;100.00
12789;BME280;6458;42.710;23.192;2023-08-31T00:39:02;57554.78;;;-144.77;100.00
12789;BME280;6458;42.710;23.192;2023-08-31T00:41:33;57554.78;;;-144.77;100.00
12789;BME280;6458;42.710;23.192;2023-08-31T00:44:00;57554.78;;;-144.77;100.00
12789;BME280;6458;42.710;23.192;2023-08-31T00:46:27;57554.78;;;-144.77;100.00
12789;BME280;6458;42.710;23.192;2023-08-31T00:48:55;93349.34;;;17.93;100.00
12789;BME280;6458;42.710;23.192;2023-08-31T00:51:23;57554.78;;;-144.77;100.00
12789;BME280;6458;42.710;23.192;2023-08-31T00:53:51;93349.34;;;17.93;100.00
12789;BME280;6458;42.710;23.192;2023-08-31T00:56:19;93349.34;;;17.93;100.00
12789;BME280;6458;42.710;23.192;2023-08-31T00:58:48;93366.50;;;18.39;100.00
12789;BME280;6458;42.710;23.192;2023-08-31T01:01:20;93366.50;;;18.39;100.00
12789;BME280;6458;42.710;23.192;2023-08-31T01:03:53;93366.50;;;18.39;100.00
12789;BME280;6458;42.710;23.192;2023-08-31T01:06:34;93366.50;;;18.39;100.00
12789;BME280;6458;42.710;23.192;2023-08-31T01:09:07;57554.78;;;-144.77;100.00
12789;BME280;6458;42.710;23.192;2023-08-31T01:11:45;57554.78;;;-144.77;100.00
12789;BME280;6458;42.710;23.192;2023-08-31T01:14:19;93363.06;;;18.17;100.00
12789;BME280;6458;42.710;23.192;2023-08-31T01:16:50;69496.66;;;-144.77;100.00
12789;BME280;6458;42.710;23.192;2023-08-31T01:19:30;93363.06;;;18.17;100.00
12789;BME280;6458;42.710;23.192;2023-08-31T01:22:05;93377.06;;;18.27;100.00
12789;BME280;6458;42.710;23.192;2023-08-31T01:24:36;93377.06;;;18.27;100.00
12789;BME280;6458;42.710;23.192;2023-08-31T01:27:04;93366.75;;;18.36;100.00
12789;BME280;6458;42.710;23.192;2023-08-31T01:29:32;93366.75;;;18.36;100.00
12789;BME280;6458;42.710;23.192;2023-08-31T01:31:59;57554.78;;;-144.77;100.00
12789;BME280;6458;42.710;23.192;2023-08-31T01:34:26;93366.75;;;18.36;100.00
12789;BME280;6458;42.710;23.192;2023-08-31T01:36:56;57554.78;;;-144.77;100.00
12789;BME280;6458;42.710;23.192;2023-08-31T01:39:31;93366.75;;;18.36;100.00
12789;BME280;6458;42.710;23.192;2023-08-31T01:42:03;57554.78;;;-144.77;80.76
12789;BME280;6458;42.710;23.192;2023-08-31T01:44:35;93366.75;;;18.36;100.00
12789;BME280;6458;42.710;23.192;2023-08-31T01:47:04;93366.75;;;18.36;100.00
12789;BME280;6458;42.710;23.192;2023-08-31T01:49:36;93366.75;;;18.36;100.00
12789;BME280;6458;42.710;23.192;2023-08-31T01:52:04;93373.06;;;17.70;100.00
12789;BME280;6458;42.710;23.192;2023-08-31T01:54:31;93373.06;;;17.70;100.00
12789;BME280;6458;42.710;23.192;2023-08-31T01:57:00;93373.06;;;17.70;100.00
12789;BME280;6458;42.710;23.192;2023-08-31T01:59:28;93373.06;;;17.70;100.00
12789;BME280;6458;42.710;23.192;2023-08-31T02:01:55;93373.06;;;17.70;100.00
12789;BME280;6458;42.710;23.192;2023-08-31T02:04:23;93373.06;;;17.70;100.00
12789;BME280;6458;42.710;23.192;2023-08-31T02:06:50;93373.06;;;17.70;100.00
12789;BME280;6458;42.710;23.192;2023-08-31T02:09:20;93373.06;;;17.70;100.00
12789;BME280;6458;42.710;23.192;2023-08-31T02:11:47;93373.06;;;17.70;100.00
12789;BME280;6458;42.710;23.192;2023-08-31T02:14:16;93373.06;;;17.70;100.00
12789;BME280;6458;42.710;23.192;2023-08-31T02:16:43;93373.06;;;17.70;100.00
12789;BME280;6458;42.710;23.192;2023-08-31T02:19:10;57554.78;;;-144.77;100.00
12789;BME280;6458;42.710;23.192;2023-08-31T02:21:37;57554.78;;;-144.77;100.00
12789;BME280;6458;42.710;23.192;2023-08-31T02:24:05;57554.78;;;-144.77;100.00
12789;BME280;6458;42.710;23.192;2023-08-31T02:26:32;57554.78;;;-144.77;100.00
12789;BME280;6458;42.710;23.192;2023-08-31T02:28:59;57554.78;;;-144.77;100.00
12789;BME280;6458;42.710;23.192;2023-08-31T02:31:28;57554.78;;;-144.77;100.00
12789;BME280;6458;42.710;23.192;2023-08-31T02:33:55;57554.78;;;-144.77;100.00
12789;BME280;6458;42.710;23.192;2023-08-31T02:36:22;57554.78;;;-144.77;100.00
12789;BME280;6458;42.710;23.192;2023-08-31T02:38:48;57554.78;;;-144.77;100.00
12789;BME280;6458;42.710;23.192;2023-08-31T02:41:16;57554.78;;;-144.77;100.00
12789;BME280;6458;42.710;23.192;2023-08-31T02:43:43;57554.78;;;-144.77;100.00
12789;BME280;6458;42.710;23.192;2023-08-31T02:46:10;57554.78;;;-144.77;100.00
12789;BME280;6458;42.710;23.192;2023-08-31T02:48:38;57554.78;;;-144.77;100.00
12789;BME280;6458;42.710;23.192;2023-08-31T02:51:05;57554.78;;;-144.77;100.00
12789;BME280;6458;42.710;23.192;2023-08-31T02:53:32;57554.78;;;-144.77;100.00
12789;BME280;6458;42.710;23.192;2023-08-31T02:55:59;57554.78;;;-144.77;100.00
12789;BME280;6458;42.710;23.192;2023-08-31T02:58:27;57554.78;;;-144.77;100.00
12789;BME280;6458;42.710;23.192;2023-08-31T03:00:54;57554.78;;;-144.77;100.00
12789;BME280;6458;42.710;23.192;2023-08-31T03:03:22;57554.78;;;-144.77;100.00
12789;BME280;6458;42.710;23.192;2023-08-31T03:05:55;57554.78;;;-144.77;100.00
12789;BME280;6458;42.710;23.192;2023-08-31T03:08:22;57554.78;;;-144.77;100.00
12789;BME280;6458;42.710;23.192;2023-08-31T03:10:49;57554.78;;;-144.77;100.00
12789;BME280;6458;42.710;23.192;2023-08-31T03:13:18;57554.78;;;-144.77;100.00
12789;BME280;6458;42.710;23.192;2023-08-31T03:15:45;57554.78;;;-144.77;100.00
12789;BME280;6458;42.710;23.192;2023-08-31T03:18:12;57554.78;;;-144.77;100.00
12789;BME280;6458;42.710;23.192;2023-08-31T03:20:39;57554.78;;;-144.77;100.00
12789;BME280;6458;42.710;23.192;2023-08-31T03:23:07;57554.78;;;-144.77;100.00
12789;BME280;6458;42.710;23.192;2023-08-31T03:25:34;57554.78;;;-144.77;100.00
12789;BME280;6458;42.710;23.192;2023-08-31T03:28:02;57554.78;;;-144.77;100.00
12789;BME280;6458;42.710;23.192;2023-08-31T03:30:29;57554.78;;;-144.77;100.00
12789;BME280;6458;42.710;23.192;2023-08-31T03:32:56;57554.78;;;-144.77;100.00
12789;BME280;6458;42.710;23.192;2023-08-31T03:35:23;57554.78;;;-144.77;100.00
12789;BME280;6458;42.710;23.192;2023-08-31T03:37:52;57554.78;;;-144.77;100.00
12789;BME280;6458;42.710;23.192;2023-08-31T03:40:21;57554.78;;;-144.77;100.00
12789;BME280;6458;42.710;23.192;2023-08-31T03:42:48;57554.78;;;-144.77;100.00
12789;BME280;6458;42.710;23.192;2023-08-31T03:45:16;57554.78;;;-144.77;100.00
12789;BME280;6458;42.710;23.192;2023-08-31T03:47:43;57554.78;;;-144.77;100.00
12789;BME280;6458;42.710;23.192;2023-08-31T03:50:11;57554.78;;;-144.77;100.00
12789;BME280;6458;42.710;23.192;2023-08-31T03:52:37;57554.78;;;-144.77;100.00
12789;BME280;6458;42.710;23.192;2023-08-31T03:55:05;57554.78;;;-144.77;100.00
12789;BME280;6458;42.710;23.192;2023-08-31T03:57:33;57554.78;;;-144.77;100.00
12789;BME280;6458;42.710;23.192;2023-08-31T04:00:00;57554.78;;;-144.77;100.00
12789;BME280;6458;42.710;23.192;2023-08-31T04:02:29;57554.78;;;-144.77;100.00
12789;BME280;6458;42.710;23.192;2023-08-31T04:04:57;57554.78;;;-144.77;100.00
12789;BME280;6458;42.710;23.192;2023-08-31T04:07:24;57554.78;;;-144.77;100.00
12789;BME280;6458;42.710;23.192;2023-08-31T04:09:51;57554.78;;;-144.77;100.00
12789;BME280;6458;42.710;23.192;2023-08-31T04:12:18;57554.78;;;-144.77;100.00
12789;BME280;6458;42.710;23.192;2023-08-31T04:14:47;57554.78;;;-144.77;100.00
12789;BME280;6458;42.710;23.192;2023-08-31T04:17:14;57554.78;;;-144.77;100.00
12789;BME280;6458;42.710;23.192;2023-08-31T04:19:41;57554.78;;;-144.77;100.00
12789;BME280;6458;42.710;23.192;2023-08-31T04:22:08;57554.78;;;-144.77;100.00
12789;BME280;6458;42.710;23.192;2023-08-31T04:24:35;57554.78;;;-144.77;100.00
12789;BME280;6458;42.710;23.192;2023-08-31T04:27:02;57554.78;;;-144.77;100.00
12789;BME280;6458;42.710;23.192;2023-08-31T04:29:29;57554.78;;;-144.77;100.00
12789;BME280;6458;42.710;23.192;2023-08-31T04:31:57;57554.78;;;-144.77;100.00
12789;BME280;6458;42.710;23.192;2023-08-31T04:34:25;57554.78;;;-144.77;100.00
12789;BME280;6458;42.710;23.192;2023-08-31T04:36:52;57554.78;;;-144.77;100.00
12789;BME280;6458;42.710;23.192;2023-08-31T04:39:19;57554.78;;;-144.77;100.00
12789;BME280;6458;42.710;23.192;2023-08-31T04:41:46;57554.78;;;-144.77;100.00
12789;BME280;6458;42.710;23.192;2023-08-31T04:44:13;57554.78;;;-144.77;100.00
12789;BME280;6458;42.710;23.192;2023-08-31T04:46:40;57554.78;;;-144.77;100.00
12789;BME280;6458;42.710;23.192;2023-08-31T04:49:09;57554.78;;;-144.77;100.00
12789;BME280;6458;42.710;23.192;2023-08-31T04:51:36;57554.78;;;-144.77;100.00
12789;BME280;6458;42.710;23.192;2023-08-31T04:54:05;57554.78;;;-144.77;100.00
12789;BME280;6458;42.710;23.192;2023-08-31T04:56:33;57554.78;;;-144.77;100.00
12789;BME280;6458;42.710;23.192;2023-08-31T04:59:01;57554.78;;;-144.77;100.00
12789;BME280;6458;42.710;23.192;2023-08-31T05:01:28;57554.78;;;-144.77;100.00
12789;BME280;6458;42.710;23.192;2023-08-31T05:03:55;57554.78;;;-144.77;100.00
12789;BME280;6458;42.710;23.192;2023-08-31T05:06:24;57554.78;;;-144.77;100.00
12789;BME280;6458;42.710;23.192;2023-08-31T05:08:51;57554.78;;;-144.77;100.00
12789;BME280;6458;42.710;23.192;2023-08-31T05:11:18;57554.78;;;-144.77;100.00
12789;BME280;6458;42.710;23.192;2023-08-31T05:13:47;57554.78;;;-144.77;100.00
12789;BME280;6458;42.710;23.192;2023-08-31T05:16:14;57554.78;;;-144.77;100.00
12789;BME280;6458;42.710;23.192;2023-08-31T05:18:41;57554.78;;;-144.77;100.00
12789;BME280;6458;42.710;23.192;2023-08-31T05:21:08;57554.78;;;-144.77;100.00
12789;BME280;6458;42.710;23.192;2023-08-31T05:23:36;57554.78;;;-144.77;100.00
12789;BME280;6458;42.710;23.192;2023-08-31T05:26:03;57554.78;;;-144.77;100.00
12789;BME280;6458;42.710;23.192;2023-08-31T05:28:30;57554.78;;;-144.77;100.00
12789;BME280;6458;42.710;23.192;2023-08-31T05:31:01;57554.78;;;-144.77;100.00
12789;BME280;6458;42.710;23.192;2023-08-31T05:33:29;57554.78;;;-144.77;100.00
12789;BME280;6458;42.710;23.192;2023-08-31T05:36:00;57554.78;;;-144.77;100.00
12789;BME280;6458;42.710;23.192;2023-08-31T05:38:27;57554.78;;;-144.77;100.00
12789;BME280;6458;42.710;23.192;2023-08-31T05:41:03;57554.78;;;-144.77;100.00
12789;BME280;6458;42.710;23.192;2023-08-31T05:43:31;57554.78;;;-144.77;100.00
12789;BME280;6458;42.710;23.192;2023-08-31T05:45:58;57554.78;;;-144.77;100.00
12789;BME280;6458;42.710;23.192;2023-08-31T05:48:25;57554.78;;;-144.77;100.00
12789;BME280;6458;42.710;23.192;2023-08-31T05:50:52;57554.78;;;-144.77;100.00
12789;BME280;6458;42.710;23.192;2023-08-31T05:53:18;57554.78;;;-144.77;100.00
12789;BME280;6458;42.710;23.192;2023-08-31T05:55:45;57554.78;;;-144.77;100.00
12789;BME280;6458;42.710;23.192;2023-08-31T05:58:14;57554.78;;;-144.77;100.00
12789;BME280;6458;42.710;23.192;2023-08-31T06:00:41;57554.78;;;-144.77;100.00
12789;BME280;6458;42.710;23.192;2023-08-31T06:03:08;57554.78;;;-144.77;100.00
12789;BME280;6458;42.710;23.192;2023-08-31T06:05:35;57554.78;;;-144.77;100.00
12789;BME280;6458;42.710;23.192;2023-08-31T06:08:04;57554.78;;;-144.77;100.00
12789;BME280;6458;42.710;23.192;2023-08-31T06:10:31;57554.78;;;-144.77;100.00
12789;BME280;6458;42.710;23.192;2023-08-31T06:12:58;57554.78;;;-144.77;100.00
12789;BME280;6458;42.710;23.192;2023-08-31T06:15:26;57554.78;;;-144.77;100.00
12789;BME280;6458;42.710;23.192;2023-08-31T06:17:53;57554.78;;;-144.77;100.00
12789;BME280;6458;42.710;23.192;2023-08-31T06:20:20;93520.91;;;26.68;45.40
12789;BME280;6458;42.710;23.192;2023-08-31T06:22:47;93523.56;;;26.68;45.27
12789;BME280;6458;42.710;23.192;2023-08-31T06:25:14;93527.03;;;26.91;44.92
12789;BME280;6458;42.710;23.192;2023-08-31T06:27:44;93528.56;;;27.32;44.91
12789;BME280;6458;42.710;23.192;2023-08-31T06:30:11;93528.94;;;27.81;44.05
12789;BME280;6458;42.710;23.192;2023-08-31T06:32:42;93524.53;;;28.25;43.03
12789;BME280;6458;42.710;23.192;2023-08-31T06:35:10;93530.88;;;28.24;41.15
12789;BME280;6458;42.710;23.192;2023-08-31T06:37:37;93535.75;;;28.35;41.69
12789;BME280;6458;42.710;23.192;2023-08-31T06:40:05;93543.78;;;28.20;42.13
12789;BME280;6458;42.710;23.192;2023-08-31T06:42:33;93542.06;;;28.12;42.76
12789;BME280;6458;42.710;23.192;2023-08-31T06:45:00;93547.34;;;27.68;43.08
12789;BME280;6458;42.710;23.192;2023-08-31T06:47:27;93538.34;;;27.69;42.70
12789;BME280;6458;42.710;23.192;2023-08-31T06:49:56;93556.41;;;27.29;43.62
12789;BME280;6458;42.710;23.192;2023-08-31T06:52:23;93549.56;;;27.49;43.49
12789;BME280;6458;42.710;23.192;2023-08-31T06:54:50;93554.78;;;27.58;43.68
12789;BME280;6458;42.710;23.192;2023-08-31T06:57:20;93544.25;;;28.09;42.30
12789;BME280;6458;42.710;23.192;2023-08-31T06:59:47;93547.19;;;28.29;41.53
12789;BME280;6458;42.710;23.192;2023-08-31T07:02:14;93559.16;;;27.88;42.05
12789;BME280;6458;42.710;23.192;2023-08-31T07:04:41;93559.72;;;27.99;42.27
12789;BME280;6458;42.710;23.192;2023-08-31T07:07:10;93560.34;;;27.86;43.55
12789;BME280;6458;42.710;23.192;2023-08-31T07:09:39;93564.59;;;27.27;44.83
12789;BME280;6458;42.710;23.192;2023-08-31T07:12:06;93563.16;;;26.94;44.32
12789;BME280;6458;42.710;23.192;2023-08-31T07:14:33;93561.25;;;27.25;43.99
12789;BME280;6458;42.710;23.192;2023-08-31T07:17:00;93561.16;;;27.19;43.69
12789;BME280;6458;42.710;23.192;2023-08-31T07:19:27;93561.91;;;27.80;42.55
12789;BME280;6458;42.710;23.192;2023-08-31T07:21:54;93566.34;;;28.03;42.43
12789;BME280;6458;42.710;23.192;2023-08-31T07:24:23;93563.72;;;28.24;43.46
12789;BME280;6458;42.710;23.192;2023-08-31T07:26:50;93565.88;;;27.09;44.81
12789;BME280;6458;42.710;23.192;2023-08-31T07:29:17;93569.19;;;26.65;45.68
12789;BME280;6458;42.710;23.192;2023-08-31T07:31:44;93569.19;;;26.65;45.68
12789;BME280;6458;42.710;23.192;2023-08-31T07:34:10;93573.81;;;27.17;43.91
12789;BME280;6458;42.710;23.192;2023-08-31T07:36:37;93573.53;;;27.64;44.19
12789;BME280;6458;42.710;23.192;2023-08-31T07:39:05;93569.53;;;27.83;44.61
12789;BME280;6458;42.710;23.192;2023-08-31T07:41:34;93579.66;;;27.35;43.71
12789;BME280;6458;42.710;23.192;2023-08-31T07:44:00;93570.66;;;26.90;44.94
12789;BME280;6458;42.710;23.192;2023-08-31T07:46:28;93567.94;;;27.74;43.68
12789;BME280;6458;42.710;23.192;2023-08-31T07:48:55;93572.50;;;28.48;43.17
12789;BME280;6458;42.710;23.192;2023-08-31T07:51:22;93575.13;;;29.20;41.87
12789;BME280;6458;42.710;23.192;2023-08-31T07:53:51;93573.69;;;29.67;40.42
12789;BME280;6458;42.710;23.192;2023-08-31T07:56:18;93566.06;;;29.92;39.01
12789;BME280;6458;42.710;23.192;2023-08-31T07:58:46;93563.00;;;30.37;37.24
12789;BME280;6458;42.710;23.192;2023-08-31T08:01:13;93561.03;;;30.52;34.27
12789;BME280;6458;42.710;23.192;2023-08-31T08:03:40;93568.34;;;30.85;34.51
12789;BME280;6458;42.710;23.192;2023-08-31T08:06:06;93566.56;;;30.51;34.42
12789;BME280;6458;42.710;23.192;2023-08-31T08:08:33;93565.22;;;30.75;33.70
12789;BME280;6458;42.710;23.192;2023-08-31T08:11:00;93572.13;;;31.30;34.63
12789;BME280;6458;42.710;23.192;2023-08-31T08:13:28;93573.63;;;31.73;34.05
12789;BME280;6458;42.710;23.192;2023-08-31T08:15:56;93569.50;;;31.70;34.08
12789;BME280;6458;42.710;23.192;2023-08-31T08:18:23;93558.78;;;31.70;33.05
12789;BME280;6458;42.710;23.192;2023-08-31T08:20:50;93565.59;;;31.93;32.72
12789;BME280;6458;42.710;23.192;2023-08-31T08:23:17;93568.03;;;31.74;31.33
12789;BME280;6458;42.710;23.192;2023-08-31T08:25:44;93570.75;;;31.88;31.38
12789;BME280;6458;42.710;23.192;2023-08-31T08:28:11;93568.25;;;31.79;32.44
12789;BME280;6458;42.710;23.192;2023-08-31T08:30:38;93570.75;;;31.68;33.10
12789;BME280;6458;42.710;23.192;2023-08-31T08:33:08;93570.13;;;31.66;32.68
12789;BME280;6458;42.710;23.192;2023-08-31T08:35:37;93577.13;;;31.86;32.15
12789;BME280;6458;42.710;23.192;2023-08-31T08:38:04;93578.16;;;31.99;32.11
12789;BME280;6458;42.710;23.192;2023-08-31T08:40:31;93576.50;;;31.71;31.67
12789;BME280;6458;42.710;23.192;2023-08-31T08:43:00;93583.13;;;31.75;31.41
12789;BME280;6458;42.710;23.192;2023-08-31T08:45:30;93585.81;;;31.89;31.84
12789;BME280;6458;42.710;23.192;2023-08-31T08:47:57;93582.66;;;32.25;32.31
12789;BME280;6458;42.710;23.192;2023-08-31T08:50:26;93579.72;;;32.46;31.71
12789;BME280;6458;42.710;23.192;2023-08-31T08:52:54;93576.03;;;32.47;31.71
12789;BME280;6458;42.710;23.192;2023-08-31T08:55:21;93586.28;;;32.64;31.40
12789;BME280;6458;42.710;23.192;2023-08-31T08:57:48;93578.59;;;32.74;31.69
12789;BME280;6458;42.710;23.192;2023-08-31T09:00:15;93578.31;;;32.89;31.18
12789;BME280;6458;42.710;23.192;2023-08-31T09:02:42;93576.59;;;33.08;30.78
12789;BME280;6458;42.710;23.192;2023-08-31T09:05:10;93573.28;;;33.06;31.57
12789;BME280;6458;42.710;23.192;2023-08-31T09:08:04;93567.88;;;32.67;30.86
12789;BME280;6458;42.710;23.192;2023-08-31T09:10:36;93573.81;;;32.11;30.95
12789;BME280;6458;42.710;23.192;2023-08-31T09:13:08;93567.03;;;31.75;31.77
12789;BME280;6458;42.710;23.192;2023-08-31T09:15:42;93571.75;;;31.80;32.40
12789;BME280;6458;42.710;23.192;2023-08-31T09:18:14;93574.44;;;31.93;31.79
12789;BME280;6458;42.710;23.192;2023-08-31T09:20:46;93568.69;;;31.70;32.74
12789;BME280;6458;42.710;23.192;2023-08-31T09:23:15;93576.72;;;31.70;33.10
12789;BME280;6458;42.710;23.192;2023-08-31T09:25:44;93568.03;;;32.14;31.89
12789;BME280;6458;42.710;23.192;2023-08-31T09:28:12;93574.25;;;31.95;29.68
12789;BME280;6458;42.710;23.192;2023-08-31T09:30:39;93573.22;;;31.69;30.36
12789;BME280;6458;42.710;23.192;2023-08-31T09:33:07;93575.59;;;30.91;31.69
12789;BME280;6458;42.710;23.192;2023-08-31T09:35:38;93577.53;;;30.62;32.04
12789;BME280;6458;42.710;23.192;2023-08-31T09:38:08;93579.09;;;30.91;32.09
12789;BME280;6458;42.710;23.192;2023-08-31T09:40:37;93569.53;;;31.44;31.33
12789;BME280;6458;42.710;23.192;2023-08-31T09:43:04;93568.28;;;31.53;31.21
12789;BME280;6458;42.710;23.192;2023-08-31T09:45:32;93568.25;;;31.39;31.10
12789;BME280;6458;42.710;23.192;2023-08-31T09:48:00;93564.16;;;31.63;30.17
12789;BME280;6458;42.710;23.192;2023-08-31T09:50:29;93568.66;;;31.83;31.45
12789;BME280;6458;42.710;23.192;2023-08-31T09:53:00;93559.97;;;31.81;30.56
12789;BME280;6458;42.710;23.192;2023-08-31T09:55:28;93555.03;;;32.11;30.52
12789;BME280;6458;42.710;23.192;2023-08-31T09:57:58;93562.91;;;31.59;31.99
12789;BME280;6458;42.710;23.192;2023-08-31T10:00:26;93565.78;;;31.45;30.41
12789;BME280;6458;42.710;23.192;2023-08-31T10:02:56;93566.19;;;31.28;30.58
12789;BME280;6458;42.710;23.192;2023-08-31T10:05:24;93560.03;;;31.41;31.53
12789;BME280;6458;42.710;23.192;2023-08-31T10:07:51;93563.31;;;31.63;31.30
12789;BME280;6458;42.710;23.192;2023-08-31T10:10:18;93557.31;;;31.81;30.65
12789;BME280;6458;42.710;23.192;2023-08-31T10:12:48;93557.50;;;31.26;31.29
12789;BME280;6458;42.710;23.192;2023-08-31T10:15:18;93560.63;;;31.70;31.75
12789;BME280;6458;42.710;23.192;2023-08-31T10:17:46;93558.75;;;31.83;30.66
12789;BME280;6458;42.710;23.192;2023-08-31T10:20:15;93562.25;;;31.84;30.98
12789;BME280;6458;42.710;23.192;2023-08-31T10:22:42;93565.78;;;31.51;31.11
12789;BME280;6458;42.710;23.192;2023-08-31T10:25:10;93561.03;;;31.80;30.75
12789;BME280;6458;42.710;23.192;2023-08-31T10:27:37;93559.63;;;31.91;31.08
12789;BME280;6458;42.710;23.192;2023-08-31T10:30:14;93558.91;;;32.15;31.20
12789;BME280;6458;42.710;23.192;2023-08-31T10:32:42;93555.44;;;32.08;30.48
12789;BME280;6458;42.710;23.192;2023-08-31T10:35:09;93562.50;;;31.76;32.08
12789;BME280;6458;42.710;23.192;2023-08-31T10:37:36;93564.56;;;31.47;32.36
12789;BME280;6458;42.710;23.192;2023-08-31T10:40:09;93569.41;;;30.84;33.02
12789;BME280;6458;42.710;23.192;2023-08-31T10:42:44;93575.06;;;30.67;33.52
12789;BME280;6458;42.710;23.192;2023-08-31T10:45:12;93575.16;;;30.81;33.69
12789;BME280;6458;42.710;23.192;2023-08-31T10:47:42;93574.75;;;30.84;33.45
12789;BME280;6458;42.710;23.192;2023-08-31T10:50:22;93576.41;;;30.98;33.46
12789;BME280;6458;42.710;23.192;2023-08-31T10:52:49;93576.25;;;31.13;32.67
12789;BME280;6458;42.710;23.192;2023-08-31T10:55:16;93578.31;;;31.17;32.68
12789;BME280;6458;42.710;23.192;2023-08-31T10:57:43;93572.94;;;31.04;33.70
12789;BME280;6458;42.710;23.192;2023-08-31T11:00:11;93574.00;;;31.16;33.93
12789;BME280;6458;42.710;23.192;2023-08-31T11:02:43;93573.81;;;31.25;32.96
12789;BME280;6458;42.710;23.192;2023-08-31T11:05:13;93576.94;;;31.55;32.52
12789;BME280;6458;42.710;23.192;2023-08-31T11:07:41;93577.78;;;31.69;31.51
12789;BME280;6458;42.710;23.192;2023-08-31T11:10:13;93576.09;;;31.61;31.41
12789;BME280;6458;42.710;23.192;2023-08-31T11:12:41;93579.81;;;31.67;31.19
12789;BME280;6458;42.710;23.192;2023-08-31T11:15:10;93579.44;;;31.56;31.29
12789;BME280;6458;42.710;23.192;2023-08-31T11:17:37;93580.84;;;31.79;32.46
12789;BME280;6458;42.710;23.192;2023-08-31T11:20:08;93574.88;;;31.70;32.58
12789;BME280;6458;42.710;23.192;2023-08-31T11:22:38;93584.97;;;30.74;35.36
12789;BME280;6458;42.710;23.192;2023-08-31T11:25:07;93577.66;;;30.47;35.82
12789;BME280;6458;42.710;23.192;2023-08-31T11:27:35;93591.28;;;30.11;36.12
12789;BME280;6458;42.710;23.192;2023-08-31T11:30:03;93584.81;;;29.71;37.54
12789;BME280;6458;42.710;23.192;2023-08-31T11:32:30;93591.78;;;29.65;37.91
12789;BME280;6458;42.710;23.192;2023-08-31T11:34:57;93594.16;;;29.82;38.08
12789;BME280;6458;42.710;23.192;2023-08-31T11:37:25;93596.72;;;29.68;38.62
12789;BME280;6458;42.710;23.192;2023-08-31T11:39:53;93587.31;;;30.07;36.05
12789;BME280;6458;42.710;23.192;2023-08-31T11:42:21;93583.16;;;30.33;36.78
12789;BME280;6458;42.710;23.192;2023-08-31T11:44:49;93585.63;;;30.28;36.64
12789;BME280;6458;42.710;23.192;2023-08-31T11:47:17;93576.53;;;30.22;36.99
12789;BME280;6458;42.710;23.192;2023-08-31T11:49:45;93581.22;;;29.85;36.86
12789;BME280;6458;42.710;23.192;2023-08-31T11:52:14;93580.44;;;29.63;37.12
12789;BME280;6458;42.710;23.192;2023-08-31T11:54:43;93569.00;;;29.48;37.73
12789;BME280;6458;42.710;23.192;2023-08-31T11:57:11;93568.38;;;29.24;37.89
12789;BME280;6458;42.710;23.192;2023-08-31T11:59:40;93577.91;;;29.12;38.98
12789;BME280;6458;42.710;23.192;2023-08-31T12:02:08;93571.41;;;29.00;38.41
12789;BME280;6458;42.710;23.192;2023-08-31T12:04:42;93574.88;;;29.00;38.61
12789;BME280;6458;42.710;23.192;2023-08-31T12:07:09;93565.69;;;29.03;38.24
12789;BME280;6458;42.710;23.192;2023-08-31T12:09:36;93565.75;;;29.09;38.76
12789;BME280;6458;42.710;23.192;2023-08-31T12:12:05;93568.47;;;28.95;37.95
12789;BME280;6458;42.710;23.192;2023-08-31T12:14:37;93557.75;;;29.09;37.72
12789;BME280;6458;42.710;23.192;2023-08-31T12:17:06;93559.53;;;29.02;37.51
12789;BME280;6458;42.710;23.192;2023-08-31T12:19:35;93552.50;;;28.80;38.28
12789;BME280;6458;42.710;23.192;2023-08-31T12:22:03;93546.97;;;28.30;37.52
12789;BME280;6458;42.710;23.192;2023-08-31T12:24:37;93546.53;;;28.41;37.45
12789;BME280;6458;42.710;23.192;2023-08-31T12:27:05;93552.47;;;28.58;36.99
12789;BME280;6458;42.710;23.192;2023-08-31T12:29:32;93550.91;;;28.64;37.55
12789;BME280;6458;42.710;23.192;2023-08-31T12:31:59;93558.47;;;28.60;37.48
12789;BME280;6458;42.710;23.192;2023-08-31T12:34:26;93561.22;;;28.52;37.68
12789;BME280;6458;42.710;23.192;2023-08-31T12:36:53;93562.97;;;28.60;37.00
12789;BME280;6458;42.710;23.192;2023-08-31T12:39:25;93559.44;;;28.74;36.77
12789;BME280;6458;42.710;23.192;2023-08-31T12:41:51;93561.78;;;28.84;36.81
12789;BME280;6458;42.710;23.192;2023-08-31T12:44:20;93562.84;;;29.04;35.26
12789;BME280;6458;42.710;23.192;2023-08-31T12:46:47;93556.03;;;29.23;34.52
12789;BME280;6458;42.710;23.192;2023-08-31T12:49:14;93558.72;;;29.23;34.08
12789;BME280;6458;42.710;23.192;2023-08-31T12:51:41;93546.50;;;29.14;34.87
12789;BME280;6458;42.710;23.192;2023-08-31T12:54:09;93549.78;;;29.16;35.79
12789;BME280;6458;42.710;23.192;2023-08-31T12:56:36;93547.59;;;29.48;33.56
12789;BME280;6458;42.710;23.192;2023-08-31T12:59:03;93548.22;;;29.50;35.73